sensor_id;sensor_type;location;lat;lon;timestamp;temperature;humidity
16838;DHT22;19510;54.486;9.046;2022-12-24T00:01:47;3.50;99.90
16838;DHT22;19510;54.486;9.046;2022-12-24T00:04:13;3.50;99.90
16838;DHT22;19510;54.486;9.046;2022-12-24T00:06:38;3.50;99.90
16838;DHT22;19510;54.486;9.046;2022-12-24T00:09:04;3.50;99.90
16838;DHT22;19510;54.486;9.046;2022-12-24T00:11:30;3.50;99.90
16838;DHT22;19510;54.486;9.046;2022-12-24T00:13:58;3.50;99.90
16838;DHT22;19510;54.486;9.046;2022-12-24T00:16:23;3.50;99.90
16838;DHT22;19510;54.486;9.046;2022-12-24T00:18:49;3.50;99.90
16838;DHT22;19510;54.486;9.046;2022-12-24T00:21:15;3.60;99.90
16838;DHT22;19510;54.486;9.046;2022-12-24T00:23:41;3.60;99.90
16838;DHT22;19510;54.486;9.046;2022-12-24T00:26:07;3.60;99.90
16838;DHT22;19510;54.486;9.046;2022-12-24T00:28:33;3.50;99.90
16838;DHT22;19510;54.486;9.046;2022-12-24T00:30:58;3.50;99.90
16838;DHT22;19510;54.486;9.046;2022-12-24T00:33:26;3.50;99.90
16838;DHT22;19510;54.486;9.046;2022-12-24T00:35:52;3.50;99.90
16838;DHT22;19510;54.486;9.046;2022-12-24T00:38:18;3.50;99.90
16838;DHT22;19510;54.486;9.046;2022-12-24T00:40:44;3.50;99.90
16838;DHT22;19510;54.486;9.046;2022-12-24T00:43:11;3.40;99.90
16838;DHT22;19510;54.486;9.046;2022-12-24T00:45:37;3.50;99.90
16838;DHT22;19510;54.486;9.046;2022-12-24T00:48:03;3.50;99.90
16838;DHT22;19510;54.486;9.046;2022-12-24T00:50:29;3.40;99.90
16838;DHT22;19510;54.486;9.046;2022-12-24T00:52:54;3.50;99.90
16838;DHT22;19510;54.486;9.046;2022-12-24T00:55:22;3.50;99.90
16838;DHT22;19510;54.486;9.046;2022-12-24T00:57:48;3.50;99.90
16838;DHT22;19510;54.486;9.046;2022-12-24T01:00:14;3.50;99.90
16838;DHT22;19510;54.486;9.046;2022-12-24T01:02:42;3.50;99.90
16838;DHT22;19510;54.486;9.046;2022-12-24T01:05:10;3.50;99.90
16838;DHT22;19510;54.486;9.046;2022-12-24T01:07:43;3.50;99.90
16838;DHT22;19510;54.486;9.046;2022-12-24T01:10:09;3.60;99.90
16838;DHT22;19510;54.486;9.046;2022-12-24T01:12:36;3.60;99.90
16838;DHT22;19510;54.486;9.046;2022-12-24T01:15:02;3.60;99.90
16838;DHT22;19510;54.486;9.046;2022-12-24T01:17:27;3.70;99.90
16838;DHT22;19510;54.486;9.046;2022-12-24T01:19:55;3.70;99.90
16838;DHT22;19510;54.486;9.046;2022-12-24T01:22:21;3.70;99.90
16838;DHT22;19510;54.486;9.046;2022-12-24T01:24:47;3.70;99.90
16838;DHT22;19510;54.486;9.046;2022-12-24T01:27:12;3.70;99.90
16838;DHT22;19510;54.486;9.046;2022-12-24T01:29:38;3.70;99.90
16838;DHT22;19510;54.486;9.046;2022-12-24T01:32:04;3.70;99.90
16838;DHT22;19510;54.486;9.046;2022-12-24T01:34:30;3.70;99.90
16838;DHT22;19510;54.486;9.046;2022-12-24T01:36:58;3.80;99.90
16838;DHT22;19510;54.486;9.046;2022-12-24T01:39:24;3.80;99.90
16838;DHT22;19510;54.486;9.046;2022-12-24T01:41:50;3.80;99.90
16838;DHT22;19510;54.486;9.046;2022-12-24T01:44:37;3.80;99.90
16838;DHT22;19510;54.486;9.046;2022-12-24T01:47:20;3.80;99.90
16838;DHT22;19510;54.486;9.046;2022-12-24T01:49:56;3.80;99.90
16838;DHT22;19510;54.486;9.046;2022-12-24T01:52:29;3.70;99.90
16838;DHT22;19510;54.486;9.046;2022-12-24T01:55:04;3.70;99.90
16838;DHT22;19510;54.486;9.046;2022-12-24T01:57:34;3.80;99.90
16838;DHT22;19510;54.486;9.046;2022-12-24T02:00:06;3.70;99.90
16838;DHT22;19510;54.486;9.046;2022-12-24T02:02:33;3.80;99.90
16838;DHT22;19510;54.486;9.046;2022-12-24T02:05:10;3.80;99.90
16838;DHT22;19510;54.486;9.046;2022-12-24T02:07:38;3.70;99.90
16838;DHT22;19510;54.486;9.046;2022-12-24T02:10:10;3.70;99.90
16838;DHT22;19510;54.486;9.046;2022-12-24T02:12:37;3.80;99.90
16838;DHT22;19510;54.486;9.046;2022-12-24T02:15:06;3.70;99.90
16838;DHT22;19510;54.486;9.046;2022-12-24T02:18:01;3.70;99.90
16838;DHT22;19510;54.486;9.046;2022-12-24T02:24:01;3.80;99.90
16838;DHT22;19510;54.486;9.046;2022-12-24T02:32:26;3.90;99.90
16838;DHT22;19510;54.486;9.046;2022-12-24T02:37:49;3.80;99.90
16838;DHT22;19510;54.486;9.046;2022-12-24T02:40:22;3.80;99.90
16838;DHT22;19510;54.486;9.046;2022-12-24T02:42:54;3.90;99.90
16838;DHT22;19510;54.486;9.046;2022-12-24T02:45:25;3.80;99.90
16838;DHT22;19510;54.486;9.046;2022-12-24T02:47:52;3.90;99.90
16838;DHT22;19510;54.486;9.046;2022-12-24T02:50:19;3.80;99.90
16838;DHT22;19510;54.486;9.046;2022-12-24T02:52:46;3.90;99.90
16838;DHT22;19510;54.486;9.046;2022-12-24T02:58:33;3.90;99.90
16838;DHT22;19510;54.486;9.046;2022-12-24T03:01:12;3.90;99.90
16838;DHT22;19510;54.486;9.046;2022-12-24T03:09:24;3.90;99.90
16838;DHT22;19510;54.486;9.046;2022-12-24T03:12:09;3.90;99.90
16838;DHT22;19510;54.486;9.046;2022-12-24T03:14:39;3.90;99.90
16838;DHT22;19510;54.486;9.046;2022-12-24T03:17:06;3.90;99.90
16838;DHT22;19510;54.486;9.046;2022-12-24T03:19:33;4.00;99.90
16838;DHT22;19510;54.486;9.046;2022-12-24T03:22:02;3.90;99.90
16838;DHT22;19510;54.486;9.046;2022-12-24T03:24:31;4.00;99.90
16838;DHT22;19510;54.486;9.046;2022-12-24T03:26:58;4.00;99.90
16838;DHT22;19510;54.486;9.046;2022-12-24T03:29:25;4.00;99.90
16838;DHT22;19510;54.486;9.046;2022-12-24T03:31:52;4.00;99.90
16838;DHT22;19510;54.486;9.046;2022-12-24T03:34:23;4.00;99.90
16838;DHT22;19510;54.486;9.046;2022-12-24T03:36:49;4.00;99.90
16838;DHT22;19510;54.486;9.046;2022-12-24T03:39:15;4.00;99.90
16838;DHT22;19510;54.486;9.046;2022-12-24T03:41:41;4.10;99.90
16838;DHT22;19510;54.486;9.046;2022-12-24T03:44:06;4.00;99.90
16838;DHT22;19510;54.486;9.046;2022-12-24T03:46:34;4.00;99.90
16838;DHT22;19510;54.486;9.046;2022-12-24T03:49:02;4.00;99.90
16838;DHT22;19510;54.486;9.046;2022-12-24T03:51:28;4.00;99.90
16838;DHT22;19510;54.486;9.046;2022-12-24T03:53:57;4.00;99.90
16838;DHT22;19510;54.486;9.046;2022-12-24T03:56:24;4.00;99.90
16838;DHT22;19510;54.486;9.046;2022-12-24T03:58:51;4.00;99.90
16838;DHT22;19510;54.486;9.046;2022-12-24T04:01:17;4.00;99.90
16838;DHT22;19510;54.486;9.046;2022-12-24T04:03:43;4.00;99.90
16838;DHT22;19510;54.486;9.046;2022-12-24T04:06:14;4.00;99.90
16838;DHT22;19510;54.486;9.046;2022-12-24T04:08:42;4.00;99.90
16838;DHT22;19510;54.486;9.046;2022-12-24T04:11:10;4.00;99.90
16838;DHT22;19510;54.486;9.046;2022-12-24T04:13:36;4.00;99.90
16838;DHT22;19510;54.486;9.046;2022-12-24T04:16:10;4.00;99.90
16838;DHT22;19510;54.486;9.046;2022-12-24T04:18:36;4.00;99.90
16838;DHT22;19510;54.486;9.046;2022-12-24T04:21:03;4.00;99.90
16838;DHT22;19510;54.486;9.046;2022-12-24T04:23:33;4.00;99.90
16838;DHT22;19510;54.486;9.046;2022-12-24T04:26:02;4.00;99.90
16838;DHT22;19510;54.486;9.046;2022-12-24T04:28:29;4.00;99.90
16838;DHT22;19510;54.486;9.046;2022-12-24T04:31:06;4.00;99.90
16838;DHT22;19510;54.486;9.046;2022-12-24T04:33:33;4.10;99.90
16838;DHT22;19510;54.486;9.046;2022-12-24T04:36:03;4.10;99.90
16838;DHT22;19510;54.486;9.046;2022-12-24T04:38:29;4.10;99.90
16838;DHT22;19510;54.486;9.046;2022-12-24T04:41:04;4.10;99.90
16838;DHT22;19510;54.486;9.046;2022-12-24T04:43:30;4.10;99.90
16838;DHT22;19510;54.486;9.046;2022-12-24T04:46:02;4.20;99.90
16838;DHT22;19510;54.486;9.046;2022-12-24T04:48:28;4.20;99.90
16838;DHT22;19510;54.486;9.046;2022-12-24T04:50:54;4.20;99.90
16838;DHT22;19510;54.486;9.046;2022-12-24T04:53:19;4.20;99.90
16838;DHT22;19510;54.486;9.046;2022-12-24T04:55:45;4.20;99.90
16838;DHT22;19510;54.486;9.046;2022-12-24T04:58:12;4.20;99.90
16838;DHT22;19510;54.486;9.046;2022-12-24T05:00:39;4.20;99.90
16838;DHT22;19510;54.486;9.046;2022-12-24T05:03:05;4.20;99.90
16838;DHT22;19510;54.486;9.046;2022-12-24T05:05:30;4.20;99.90
16838;DHT22;19510;54.486;9.046;2022-12-24T05:07:56;4.20;99.90
16838;DHT22;19510;54.486;9.046;2022-12-24T05:10:22;4.20;99.90
16838;DHT22;19510;54.486;9.046;2022-12-24T05:12:48;4.20;99.90
16838;DHT22;19510;54.486;9.046;2022-12-24T05:15:13;4.20;99.90
16838;DHT22;19510;54.486;9.046;2022-12-24T05:17:39;4.20;99.90
16838;DHT22;19510;54.486;9.046;2022-12-24T05:20:05;4.20;99.90
16838;DHT22;19510;54.486;9.046;2022-12-24T05:22:31;4.30;99.90
16838;DHT22;19510;54.486;9.046;2022-12-24T05:25:16;4.30;99.90
16838;DHT22;19510;54.486;9.046;2022-12-24T05:28:00;4.30;99.90
16838;DHT22;19510;54.486;9.046;2022-12-24T05:30:26;4.20;99.90
16838;DHT22;19510;54.486;9.046;2022-12-24T05:32:51;4.20;99.90
16838;DHT22;19510;54.486;9.046;2022-12-24T05:35:19;4.20;99.90
16838;DHT22;19510;54.486;9.046;2022-12-24T05:37:45;4.20;99.90
16838;DHT22;19510;54.486;9.046;2022-12-24T05:40:13;4.20;99.90
16838;DHT22;19510;54.486;9.046;2022-12-24T05:42:38;4.30;99.90
16838;DHT22;19510;54.486;9.046;2022-12-24T05:45:04;4.20;99.90
16838;DHT22;19510;54.486;9.046;2022-12-24T05:47:30;4.30;99.90
16838;DHT22;19510;54.486;9.046;2022-12-24T05:49:56;4.20;99.90
16838;DHT22;19510;54.486;9.046;2022-12-24T05:52:22;4.20;99.90
16838;DHT22;19510;54.486;9.046;2022-12-24T05:54:47;4.20;99.90
16838;DHT22;19510;54.486;9.046;2022-12-24T05:57:13;4.20;99.90
16838;DHT22;19510;54.486;9.046;2022-12-24T05:59:39;4.20;99.90
16838;DHT22;19510;54.486;9.046;2022-12-24T06:02:04;4.20;99.90
16838;DHT22;19510;54.486;9.046;2022-12-24T06:04:30;4.20;99.90
16838;DHT22;19510;54.486;9.046;2022-12-24T06:06:55;4.20;99.90
16838;DHT22;19510;54.486;9.046;2022-12-24T06:09:21;4.20;99.90
16838;DHT22;19510;54.486;9.046;2022-12-24T06:11:47;4.20;99.90
16838;DHT22;19510;54.486;9.046;2022-12-24T06:14:13;4.20;99.90
16838;DHT22;19510;54.486;9.046;2022-12-24T06:16:38;4.20;99.90
16838;DHT22;19510;54.486;9.046;2022-12-24T06:19:04;4.10;99.90
16838;DHT22;19510;54.486;9.046;2022-12-24T06:21:32;4.20;99.90
16838;DHT22;19510;54.486;9.046;2022-12-24T06:23:58;4.20;99.90
16838;DHT22;19510;54.486;9.046;2022-12-24T06:26:23;4.10;99.90
16838;DHT22;19510;54.486;9.046;2022-12-24T06:28:49;4.10;99.90
16838;DHT22;19510;54.486;9.046;2022-12-24T06:31:18;4.20;99.90
16838;DHT22;19510;54.486;9.046;2022-12-24T06:33:44;4.10;99.90
16838;DHT22;19510;54.486;9.046;2022-12-24T06:36:18;4.10;99.90
16838;DHT22;19510;54.486;9.046;2022-12-24T06:38:45;4.20;99.90
16838;DHT22;19510;54.486;9.046;2022-12-24T06:41:14;4.20;99.90
16838;DHT22;19510;54.486;9.046;2022-12-24T06:43:49;4.20;99.90
16838;DHT22;19510;54.486;9.046;2022-12-24T06:46:16;4.20;99.90
16838;DHT22;19510;54.486;9.046;2022-12-24T06:48:43;4.20;99.90
16838;DHT22;19510;54.486;9.046;2022-12-24T06:51:12;4.20;99.90
16838;DHT22;19510;54.486;9.046;2022-12-24T06:53:38;4.20;99.90
16838;DHT22;19510;54.486;9.046;2022-12-24T06:56:09;4.20;99.90
16838;DHT22;19510;54.486;9.046;2022-12-24T06:58:35;4.20;99.90
16838;DHT22;19510;54.486;9.046;2022-12-24T07:01:02;4.20;99.90
16838;DHT22;19510;54.486;9.046;2022-12-24T07:03:28;4.20;99.90
16838;DHT22;19510;54.486;9.046;2022-12-24T07:05:56;4.20;99.90
16838;DHT22;19510;54.486;9.046;2022-12-24T07:08:22;4.20;99.90
16838;DHT22;19510;54.486;9.046;2022-12-24T07:10:49;4.20;99.90
16838;DHT22;19510;54.486;9.046;2022-12-24T07:13:15;4.20;99.90
16838;DHT22;19510;54.486;9.046;2022-12-24T07:15:41;4.20;99.90
16838;DHT22;19510;54.486;9.046;2022-12-24T07:18:06;4.30;99.90
16838;DHT22;19510;54.486;9.046;2022-12-24T07:20:32;4.30;99.90
16838;DHT22;19510;54.486;9.046;2022-12-24T07:22:58;4.30;99.90
16838;DHT22;19510;54.486;9.046;2022-12-24T07:25:24;4.30;99.90
16838;DHT22;19510;54.486;9.046;2022-12-24T07:27:49;4.20;99.90
16838;DHT22;19510;54.486;9.046;2022-12-24T07:30:15;4.30;99.90
16838;DHT22;19510;54.486;9.046;2022-12-24T07:32:43;4.30;99.90
16838;DHT22;19510;54.486;9.046;2022-12-24T07:35:12;4.30;99.90
16838;DHT22;19510;54.486;9.046;2022-12-24T07:37:37;4.30;99.90
16838;DHT22;19510;54.486;9.046;2022-12-24T07:40:06;4.30;99.90
16838;DHT22;19510;54.486;9.046;2022-12-24T07:42:34;4.30;99.90
16838;DHT22;19510;54.486;9.046;2022-12-24T07:44:59;4.30;99.90
16838;DHT22;19510;54.486;9.046;2022-12-24T07:47:26;4.20;99.90
16838;DHT22;19510;54.486;9.046;2022-12-24T07:49:52;4.30;99.90
16838;DHT22;19510;54.486;9.046;2022-12-24T07:52:17;4.30;99.90
16838;DHT22;19510;54.486;9.046;2022-12-24T07:54:43;4.30;99.90
16838;DHT22;19510;54.486;9.046;2022-12-24T07:57:08;4.30;99.90
16838;DHT22;19510;54.486;9.046;2022-12-24T07:59:34;4.30;99.90
16838;DHT22;19510;54.486;9.046;2022-12-24T08:02:00;4.30;99.90
16838;DHT22;19510;54.486;9.046;2022-12-24T08:04:30;4.30;99.90
16838;DHT22;19510;54.486;9.046;2022-12-24T08:06:57;4.30;99.90
16838;DHT22;19510;54.486;9.046;2022-12-24T08:09:22;4.30;99.90
16838;DHT22;19510;54.486;9.046;2022-12-24T08:11:50;4.30;99.90
16838;DHT22;19510;54.486;9.046;2022-12-24T08:14:16;4.30;99.90
16838;DHT22;19510;54.486;9.046;2022-12-24T08:16:42;4.30;99.90
16838;DHT22;19510;54.486;9.046;2022-12-24T08:19:07;4.20;99.90
16838;DHT22;19510;54.486;9.046;2022-12-24T08:21:33;4.30;99.90
16838;DHT22;19510;54.486;9.046;2022-12-24T08:24:01;4.30;99.90
16838;DHT22;19510;54.486;9.046;2022-12-24T08:26:27;4.30;99.90
16838;DHT22;19510;54.486;9.046;2022-12-24T08:28:54;4.30;99.90
16838;DHT22;19510;54.486;9.046;2022-12-24T08:31:20;4.40;99.90
16838;DHT22;19510;54.486;9.046;2022-12-24T08:37:08;4.40;99.90
16838;DHT22;19510;54.486;9.046;2022-12-24T08:39:36;4.40;99.90
16838;DHT22;19510;54.486;9.046;2022-12-24T08:42:01;4.40;99.90
16838;DHT22;19510;54.486;9.046;2022-12-24T08:44:27;4.50;99.90
16838;DHT22;19510;54.486;9.046;2022-12-24T08:46:53;4.50;99.90
16838;DHT22;19510;54.486;9.046;2022-12-24T08:49:18;4.50;99.90
16838;DHT22;19510;54.486;9.046;2022-12-24T08:51:44;4.50;99.90
16838;DHT22;19510;54.486;9.046;2022-12-24T08:54:10;4.50;99.90
16838;DHT22;19510;54.486;9.046;2022-12-24T08:56:36;4.50;99.90
16838;DHT22;19510;54.486;9.046;2022-12-24T08:59:01;4.50;99.90
16838;DHT22;19510;54.486;9.046;2022-12-24T09:01:27;4.60;99.90
16838;DHT22;19510;54.486;9.046;2022-12-24T09:03:53;4.50;99.90
16838;DHT22;19510;54.486;9.046;2022-12-24T09:06:18;4.50;99.90
16838;DHT22;19510;54.486;9.046;2022-12-24T09:08:44;4.50;99.90
16838;DHT22;19510;54.486;9.046;2022-12-24T09:11:12;4.50;99.90
16838;DHT22;19510;54.486;9.046;2022-12-24T09:13:39;4.50;99.90
16838;DHT22;19510;54.486;9.046;2022-12-24T09:16:07;4.50;99.90
16838;DHT22;19510;54.486;9.046;2022-12-24T09:18:34;4.60;99.90
16838;DHT22;19510;54.486;9.046;2022-12-24T09:21:01;4.60;99.90
16838;DHT22;19510;54.486;9.046;2022-12-24T09:23:27;4.70;99.90
16838;DHT22;19510;54.486;9.046;2022-12-24T09:25:56;4.70;99.90
16838;DHT22;19510;54.486;9.046;2022-12-24T09:28:22;4.70;99.90
16838;DHT22;19510;54.486;9.046;2022-12-24T09:31:03;4.70;99.90
16838;DHT22;19510;54.486;9.046;2022-12-24T09:33:31;4.70;99.90
16838;DHT22;19510;54.486;9.046;2022-12-24T09:35:57;4.80;99.90
16838;DHT22;19510;54.486;9.046;2022-12-24T09:38:25;4.70;99.90
16838;DHT22;19510;54.486;9.046;2022-12-24T09:40:52;4.80;99.90
16838;DHT22;19510;54.486;9.046;2022-12-24T09:43:22;4.80;99.90
16838;DHT22;19510;54.486;9.046;2022-12-24T09:48:27;4.80;99.90
16838;DHT22;19510;54.486;9.046;2022-12-24T09:51:10;4.90;99.90
16838;DHT22;19510;54.486;9.046;2022-12-24T09:54:00;4.90;99.90
16838;DHT22;19510;54.486;9.046;2022-12-24T09:56:37;4.90;99.90
16838;DHT22;19510;54.486;9.046;2022-12-24T09:59:12;4.90;99.90
16838;DHT22;19510;54.486;9.046;2022-12-24T10:01:43;4.90;99.90
16838;DHT22;19510;54.486;9.046;2022-12-24T10:04:13;5.00;99.90
16838;DHT22;19510;54.486;9.046;2022-12-24T10:06:52;5.00;99.90
16838;DHT22;19510;54.486;9.046;2022-12-24T10:15:10;5.10;99.90
16838;DHT22;19510;54.486;9.046;2022-12-24T10:23:45;5.00;99.90
16838;DHT22;19510;54.486;9.046;2022-12-24T10:26:26;5.10;99.90
16838;DHT22;19510;54.486;9.046;2022-12-24T10:32:25;5.10;99.90
16838;DHT22;19510;54.486;9.046;2022-12-24T10:34:57;5.10;99.90
16838;DHT22;19510;54.486;9.046;2022-12-24T10:37:25;5.10;99.90
16838;DHT22;19510;54.486;9.046;2022-12-24T10:39:53;5.20;99.90
16838;DHT22;19510;54.486;9.046;2022-12-24T10:42:22;5.20;99.90
16838;DHT22;19510;54.486;9.046;2022-12-24T10:44:55;5.20;99.90
16838;DHT22;19510;54.486;9.046;2022-12-24T10:47:22;5.20;99.90
16838;DHT22;19510;54.486;9.046;2022-12-24T10:50:28;5.20;99.90
16838;DHT22;19510;54.486;9.046;2022-12-24T10:53:04;5.20;99.90
16838;DHT22;19510;54.486;9.046;2022-12-24T10:55:32;5.20;99.90
16838;DHT22;19510;54.486;9.046;2022-12-24T10:58:03;5.30;99.90
16838;DHT22;19510;54.486;9.046;2022-12-24T11:00:35;5.20;99.90
16838;DHT22;19510;54.486;9.046;2022-12-24T11:03:27;5.30;99.90
16838;DHT22;19510;54.486;9.046;2022-12-24T11:06:07;5.30;99.90
16838;DHT22;19510;54.486;9.046;2022-12-24T11:08:37;5.30;99.90
16838;DHT22;19510;54.486;9.046;2022-12-24T11:11:16;5.40;99.90
16838;DHT22;19510;54.486;9.046;2022-12-24T11:13:57;5.40;99.90
16838;DHT22;19510;54.486;9.046;2022-12-24T11:16:34;5.50;99.90
16838;DHT22;19510;54.486;9.046;2022-12-24T11:19:05;5.50;99.90
16838;DHT22;19510;54.486;9.046;2022-12-24T11:21:44;5.50;99.90
16838;DHT22;19510;54.486;9.046;2022-12-24T11:26:43;5.50;99.90
16838;DHT22;19510;54.486;9.046;2022-12-24T11:29:25;5.50;99.90
16838;DHT22;19510;54.486;9.046;2022-12-24T11:32:19;5.50;99.90
16838;DHT22;19510;54.486;9.046;2022-12-24T11:34:45;5.50;99.90
16838;DHT22;19510;54.486;9.046;2022-12-24T11:37:23;5.50;99.90
16838;DHT22;19510;54.486;9.046;2022-12-24T11:39:51;5.50;99.90
16838;DHT22;19510;54.486;9.046;2022-12-24T11:44:56;5.50;99.90
16838;DHT22;19510;54.486;9.046;2022-12-24T11:47:39;5.50;99.90
16838;DHT22;19510;54.486;9.046;2022-12-24T11:50:32;5.50;99.90
16838;DHT22;19510;54.486;9.046;2022-12-24T12:00:49;5.50;99.90
16838;DHT22;19510;54.486;9.046;2022-12-24T12:03:31;5.50;99.90
16838;DHT22;19510;54.486;9.046;2022-12-24T12:06:01;5.50;99.90
16838;DHT22;19510;54.486;9.046;2022-12-24T12:08:29;5.60;99.90
16838;DHT22;19510;54.486;9.046;2022-12-24T12:10:57;5.60;99.90
16838;DHT22;19510;54.486;9.046;2022-12-24T12:13:29;5.60;99.90
16838;DHT22;19510;54.486;9.046;2022-12-24T12:16:34;5.60;99.90
16838;DHT22;19510;54.486;9.046;2022-12-24T12:19:47;5.60;99.90
16838;DHT22;19510;54.486;9.046;2022-12-24T12:25:10;5.60;99.90
16838;DHT22;19510;54.486;9.046;2022-12-24T12:27:47;5.60;99.90
16838;DHT22;19510;54.486;9.046;2022-12-24T12:30:18;5.70;99.90
16838;DHT22;19510;54.486;9.046;2022-12-24T12:32:55;5.70;99.90
16838;DHT22;19510;54.486;9.046;2022-12-24T12:35:34;5.60;99.90
16838;DHT22;19510;54.486;9.046;2022-12-24T12:38:04;5.60;99.90
16838;DHT22;19510;54.486;9.046;2022-12-24T12:49:11;5.70;99.90
16838;DHT22;19510;54.486;9.046;2022-12-24T12:52:04;5.70;99.90
16838;DHT22;19510;54.486;9.046;2022-12-24T12:54:52;5.70;99.90
16838;DHT22;19510;54.486;9.046;2022-12-24T12:57:25;5.80;99.90
16838;DHT22;19510;54.486;9.046;2022-12-24T13:00:06;5.80;99.90
16838;DHT22;19510;54.486;9.046;2022-12-24T13:20:41;5.80;99.90
16838;DHT22;19510;54.486;9.046;2022-12-24T13:23:16;5.80;99.90
16838;DHT22;19510;54.486;9.046;2022-12-24T13:25:54;5.80;99.90
16838;DHT22;19510;54.486;9.046;2022-12-24T13:36:12;5.90;99.90
16838;DHT22;19510;54.486;9.046;2022-12-24T13:38:43;5.90;99.90
16838;DHT22;19510;54.486;9.046;2022-12-24T13:49:31;5.90;99.90
16838;DHT22;19510;54.486;9.046;2022-12-24T13:52:13;5.90;99.90
16838;DHT22;19510;54.486;9.046;2022-12-24T13:55:03;5.90;99.90
16838;DHT22;19510;54.486;9.046;2022-12-24T14:02:36;6.00;99.90
16838;DHT22;19510;54.486;9.046;2022-12-24T14:05:07;6.00;99.90
16838;DHT22;19510;54.486;9.046;2022-12-24T14:07:38;6.00;99.90
16838;DHT22;19510;54.486;9.046;2022-12-24T14:10:20;5.90;99.90
16838;DHT22;19510;54.486;9.046;2022-12-24T14:12:49;5.90;99.90
16838;DHT22;19510;54.486;9.046;2022-12-24T14:18:26;6.00;99.90
16838;DHT22;19510;54.486;9.046;2022-12-24T14:20:54;6.00;99.90
16838;DHT22;19510;54.486;9.046;2022-12-24T14:23:41;5.90;99.90
16838;DHT22;19510;54.486;9.046;2022-12-24T14:26:13;5.90;99.90
16838;DHT22;19510;54.486;9.046;2022-12-24T14:28:45;5.90;99.90
16838;DHT22;19510;54.486;9.046;2022-12-24T14:31:17;5.90;99.90
16838;DHT22;19510;54.486;9.046;2022-12-24T14:33:43;5.90;99.90
16838;DHT22;19510;54.486;9.046;2022-12-24T14:36:10;5.90;99.90
16838;DHT22;19510;54.486;9.046;2022-12-24T14:38:40;5.90;99.90
16838;DHT22;19510;54.486;9.046;2022-12-24T14:46:43;5.90;99.90
16838;DHT22;19510;54.486;9.046;2022-12-24T14:52:32;5.90;99.90
16838;DHT22;19510;54.486;9.046;2022-12-24T14:54:59;5.90;99.90
16838;DHT22;19510;54.486;9.046;2022-12-24T14:57:26;5.90;99.90
16838;DHT22;19510;54.486;9.046;2022-12-24T15:02:37;5.90;99.90
16838;DHT22;19510;54.486;9.046;2022-12-24T15:05:15;5.90;99.90
16838;DHT22;19510;54.486;9.046;2022-12-24T15:08:01;5.90;99.90
16838;DHT22;19510;54.486;9.046;2022-12-24T15:10:34;5.90;99.90
16838;DHT22;19510;54.486;9.046;2022-12-24T15:13:06;5.90;99.90
16838;DHT22;19510;54.486;9.046;2022-12-24T15:15:35;5.90;99.90
16838;DHT22;19510;54.486;9.046;2022-12-24T15:18:04;6.00;99.90
16838;DHT22;19510;54.486;9.046;2022-12-24T15:20:30;6.00;99.90
16838;DHT22;19510;54.486;9.046;2022-12-24T15:22:57;6.00;99.90
16838;DHT22;19510;54.486;9.046;2022-12-24T15:25:32;6.00;99.90
16838;DHT22;19510;54.486;9.046;2022-12-24T15:27:58;6.00;99.90
16838;DHT22;19510;54.486;9.046;2022-12-24T15:30:27;6.00;99.90
16838;DHT22;19510;54.486;9.046;2022-12-24T15:32:55;6.00;99.90
16838;DHT22;19510;54.486;9.046;2022-12-24T15:38:02;6.00;99.90
16838;DHT22;19510;54.486;9.046;2022-12-24T15:40:31;6.00;99.90
16838;DHT22;19510;54.486;9.046;2022-12-24T15:42:59;6.00;99.90
16838;DHT22;19510;54.486;9.046;2022-12-24T15:45:28;6.00;99.90
16838;DHT22;19510;54.486;9.046;2022-12-24T15:48:23;6.10;99.90
16838;DHT22;19510;54.486;9.046;2022-12-24T15:50:56;6.10;99.90
16838;DHT22;19510;54.486;9.046;2022-12-24T15:53:26;6.10;99.90
16838;DHT22;19510;54.486;9.046;2022-12-24T15:56:07;6.10;99.90
16838;DHT22;19510;54.486;9.046;2022-12-24T15:58:43;6.10;99.90
16838;DHT22;19510;54.486;9.046;2022-12-24T16:03:54;6.10;99.90
16838;DHT22;19510;54.486;9.046;2022-12-24T16:06:21;6.10;99.90
16838;DHT22;19510;54.486;9.046;2022-12-24T16:08:47;6.10;99.90
16838;DHT22;19510;54.486;9.046;2022-12-24T16:11:22;6.10;99.90
16838;DHT22;19510;54.486;9.046;2022-12-24T16:16:28;6.10;99.90
16838;DHT22;19510;54.486;9.046;2022-12-24T16:18:56;6.10;99.90
16838;DHT22;19510;54.486;9.046;2022-12-24T16:21:35;6.10;99.90
16838;DHT22;19510;54.486;9.046;2022-12-24T16:26:37;6.20;99.90
16838;DHT22;19510;54.486;9.046;2022-12-24T16:29:04;6.20;99.90
16838;DHT22;19510;54.486;9.046;2022-12-24T16:31:42;6.20;99.90
16838;DHT22;19510;54.486;9.046;2022-12-24T16:34:13;6.20;99.90
16838;DHT22;19510;54.486;9.046;2022-12-24T16:36:46;6.20;99.90
16838;DHT22;19510;54.486;9.046;2022-12-24T16:39:15;6.30;99.90
16838;DHT22;19510;54.486;9.046;2022-12-24T16:41:54;6.30;99.90
16838;DHT22;19510;54.486;9.046;2022-12-24T16:44:40;6.30;99.90
16838;DHT22;19510;54.486;9.046;2022-12-24T16:47:10;6.40;99.90
16838;DHT22;19510;54.486;9.046;2022-12-24T16:49:37;6.40;99.90
16838;DHT22;19510;54.486;9.046;2022-12-24T16:52:06;6.40;99.90
16838;DHT22;19510;54.486;9.046;2022-12-24T16:54:35;6.40;99.90
16838;DHT22;19510;54.486;9.046;2022-12-24T16:57:00;6.40;99.90
16838;DHT22;19510;54.486;9.046;2022-12-24T16:59:26;6.40;99.90
16838;DHT22;19510;54.486;9.046;2022-12-24T17:01:54;6.40;99.90
16838;DHT22;19510;54.486;9.046;2022-12-24T17:04:22;6.50;99.90
16838;DHT22;19510;54.486;9.046;2022-12-24T17:06:48;6.50;99.90
16838;DHT22;19510;54.486;9.046;2022-12-24T17:09:15;6.50;99.90
16838;DHT22;19510;54.486;9.046;2022-12-24T17:11:40;6.50;99.90
16838;DHT22;19510;54.486;9.046;2022-12-24T17:14:06;6.50;99.90
16838;DHT22;19510;54.486;9.046;2022-12-24T17:16:32;6.50;99.90
16838;DHT22;19510;54.486;9.046;2022-12-24T17:19:01;6.50;99.90
16838;DHT22;19510;54.486;9.046;2022-12-24T17:21:30;6.50;99.90
16838;DHT22;19510;54.486;9.046;2022-12-24T17:23:55;6.50;99.90
16838;DHT22;19510;54.486;9.046;2022-12-24T17:26:24;6.50;99.90
16838;DHT22;19510;54.486;9.046;2022-12-24T17:28:52;6.50;99.90
16838;DHT22;19510;54.486;9.046;2022-12-24T17:31:19;6.60;99.90
16838;DHT22;19510;54.486;9.046;2022-12-24T17:33:51;6.60;99.90
16838;DHT22;19510;54.486;9.046;2022-12-24T17:36:17;6.60;99.90
16838;DHT22;19510;54.486;9.046;2022-12-24T17:38:43;6.70;99.90
16838;DHT22;19510;54.486;9.046;2022-12-24T17:41:17;6.70;99.90
16838;DHT22;19510;54.486;9.046;2022-12-24T17:43:43;6.70;99.90
16838;DHT22;19510;54.486;9.046;2022-12-24T17:46:17;6.80;99.90
16838;DHT22;19510;54.486;9.046;2022-12-24T17:48:43;6.80;99.90
16838;DHT22;19510;54.486;9.046;2022-12-24T17:51:11;6.90;99.90
16838;DHT22;19510;54.486;9.046;2022-12-24T17:53:39;6.90;99.90
16838;DHT22;19510;54.486;9.046;2022-12-24T17:56:05;6.90;99.90
16838;DHT22;19510;54.486;9.046;2022-12-24T17:58:32;7.00;99.90
16838;DHT22;19510;54.486;9.046;2022-12-24T18:00:58;7.00;99.90
16838;DHT22;19510;54.486;9.046;2022-12-24T18:03:25;7.00;99.90
16838;DHT22;19510;54.486;9.046;2022-12-24T18:05:51;7.10;99.90
16838;DHT22;19510;54.486;9.046;2022-12-24T18:08:18;7.10;99.90
16838;DHT22;19510;54.486;9.046;2022-12-24T18:10:44;7.10;99.90
16838;DHT22;19510;54.486;9.046;2022-12-24T18:13:10;7.20;99.90